Time;durP1;ratioP1;P1;durP2;ratioP2;P2;SDS_P1;SDS_P2;PMS_P1;PMS_P2;Temp;Humidity;BMP_temperature;BMP_pressure;BME280_temperature;BME280_humidity;BME280_pressure;Samples;Min_cycle;Max_cycle;Signal;HPM_P1;HPM_P2
2022/02/12 00:00:33;;;;;;;17.88;3.33;;;;;;;8.02;62.65;101751.97;4975355;28;20034;-85
2022/02/12 00:03:00;;;;;;;9.95;2.65;;;;;;;8.05;62.62;101751.84;4973852;28;20034;-85
2022/02/12 00:05:25;;;;;;;11.70;2.70;;;;;;;8.13;62.04;101742.78;4975597;28;20022;-85
2022/02/12 00:07:52;;;;;;;15.55;2.55;;;;;;;8.16;61.96;101744.47;4975563;28;20388;-85
2022/02/12 00:10:18;;;;;;;11.10;2.42;;;;;;;8.06;62.06;101745.72;4975511;28;20023;-86
2022/02/12 00:12:44;;;;;;;10.63;2.00;;;;;;;8.00;62.50;101732.81;4974280;28;20037;-85
2022/02/12 00:15:10;;;;;;;12.05;2.55;;;;;;;8.10;62.03;101732.47;4974184;28;20022;-85
2022/02/12 00:17:35;;;;;;;6.85;2.10;;;;;;;7.97;62.74;101732.94;4974930;28;20026;-85
2022/02/12 00:20:02;;;;;;;5.70;2.13;;;;;;;7.93;62.65;101729.59;4975124;28;20034;-85
2022/02/12 00:22:28;;;;;;;6.10;2.22;;;;;;;7.97;62.96;101725.94;4974050;28;20034;-85
2022/02/12 00:24:54;;;;;;;7.25;1.98;;;;;;;7.96;62.71;101716.41;4975031;28;20109;-86
2022/02/12 00:27:20;;;;;;;12.60;2.50;;;;;;;8.07;62.58;101718.63;4975462;28;20500;-85
2022/02/12 00:29:45;;;;;;;8.15;2.70;;;;;;;8.04;62.73;101719.59;4975228;28;20019;-85
2022/02/12 00:32:10;;;;;;;12.90;2.38;;;;;;;7.98;62.67;101703.25;4975016;28;20058;-85
2022/02/12 00:34:36;;;;;;;9.57;2.17;;;;;;;8.07;61.88;101703.78;4974187;28;20034;-86
2022/02/12 00:37:02;;;;;;;8.82;1.98;;;;;;;8.10;61.87;101693.22;4975164;28;20026;-86
2022/02/12 00:39:27;;;;;;;11.38;3.13;;;;;;;8.08;62.11;101702.03;4974509;28;20477;-86
2022/02/12 00:41:52;;;;;;;7.07;2.00;;;;;;;8.20;61.49;101696.34;4975040;28;20023;-85
2022/02/12 00:44:18;;;;;;;6.25;2.15;;;;;;;8.11;61.96;101694.91;4975044;28;20090;-85
2022/02/12 00:46:43;;;;;;;7.95;1.80;;;;;;;8.11;62.28;101701.91;4974901;28;20035;-86
2022/02/12 00:49:09;;;;;;;11.50;2.42;;;;;;;8.09;62.35;101701.13;4974659;28;20473;-86
2022/02/12 00:51:34;;;;;;;11.07;2.20;;;;;;;8.06;62.71;101693.41;4974953;28;20084;-85
2022/02/12 00:54:02;;;;;;;13.23;1.98;;;;;;;8.06;62.53;101686.41;4973630;28;20098;-85
2022/02/12 00:56:28;;;;;;;8.27;2.25;;;;;;;8.11;62.03;101679.22;4974619;28;20033;-85
2022/02/12 00:58:54;;;;;;;11.43;1.65;;;;;;;8.13;62.38;101681.78;4974302;28;20062;-85
2022/02/12 01:01:19;;;;;;;4.63;1.48;;;;;;;8.14;62.22;101680.88;4973262;28;20073;-85
2022/02/12 01:03:44;;;;;;;14.57;3.65;;;;;;;8.14;62.16;101666.03;4973272;28;20142;-86
2022/02/12 01:06:10;;;;;;;5.40;1.65;;;;;;;8.21;61.96;101674.47;4974570;28;20023;-85
2022/02/12 01:08:35;;;;;;;8.10;1.92;;;;;;;8.19;62.40;101673.69;4974413;28;20026;-85
2022/02/12 01:11:03;;;;;;;12.43;2.00;;;;;;;8.22;62.15;101664.91;4974515;28;20388;-86
2022/02/12 01:13:28;;;;;;;12.20;2.78;;;;;;;8.19;62.08;101660.63;4973990;28;20102;-86
2022/02/12 01:15:54;;;;;;;8.07;1.83;;;;;;;8.10;62.51;101655.75;4974138;28;20420;-85
2022/02/12 01:18:19;;;;;;;16.55;2.05;;;;;;;8.06;62.12;101655.00;4974484;28;20034;-86
2022/02/12 01:20:44;;;;;;;11.30;1.70;;;;;;;8.12;62.10;101648.69;4974181;28;20197;-85
2022/02/12 01:23:10;;;;;;;9.77;1.88;;;;;;;8.22;62.12;101657.06;4974274;28;20370;-85
2022/02/12 01:25:36;;;;;;;6.45;1.73;;;;;;;8.19;62.06;101634.44;4974329;28;20027;-85
2022/02/12 01:28:01;;;;;;;7.07;1.75;;;;;;;8.24;62.15;101642.16;4973570;28;20477;-86
2022/02/12 01:30:26;;;;;;;7.32;1.58;;;;;;;8.11;62.69;101634.75;4973894;28;20609;-85
2022/02/12 01:32:52;;;;;;;12.57;2.13;;;;;;;8.10;61.97;101630.44;4974050;28;20019;-85
2022/02/12 01:35:19;;;;;;;8.88;1.73;;;;;;;8.14;62.53;101631.19;4974094;28;20030;-85
2022/02/12 01:37:45;;;;;;;6.72;1.60;;;;;;;8.15;62.15;101622.41;4973923;28;20085;-85
2022/02/12 01:40:11;;;;;;;8.60;1.65;;;;;;;8.13;61.93;101614.59;4973666;28;20474;-85
2022/02/12 01:42:37;;;;;;;6.88;1.27;;;;;;;8.09;62.69;101612.19;4973796;28;20130;-86
2022/02/12 01:45:03;;;;;;;11.10;1.75;;;;;;;8.11;62.23;101610.34;4971044;28;20054;-85
2022/02/12 01:47:29;;;;;;;9.63;1.75;;;;;;;8.12;62.45;101606.84;4973715;28;20031;-85
2022/02/12 01:49:55;;;;;;;8.38;1.70;;;;;;;8.13;62.26;101604.13;4973626;28;20029;-85
2022/02/12 01:52:22;;;;;;;12.48;1.63;;;;;;;8.09;62.32;101591.25;4973703;28;20031;-85
2022/02/12 01:54:48;;;;;;;10.52;2.15;;;;;;;8.10;62.33;101583.34;4973697;28;20031;-85
2022/02/12 01:57:13;;;;;;;9.82;1.80;;;;;;;8.11;62.24;101584.19;4973569;28;20026;-86
2022/02/12 01:59:42;;;;;;;3.85;1.20;;;;;;;8.09;61.88;101586.84;4973096;28;20107;-85
2022/02/12 02:02:08;;;;;;;7.15;1.30;;;;;;;8.02;61.39;101574.09;4973640;28;20026;-85
2022/02/12 02:04:35;;;;;;;8.02;1.25;;;;;;;7.95;61.72;101569.09;4973347;28;20034;-86
2022/02/12 02:07:00;;;;;;;5.70;1.30;;;;;;;7.90;61.67;101565.81;4973453;28;20103;-86
2022/02/12 02:09:29;;;;;;;5.68;1.63;;;;;;;7.91;62.15;101577.13;4973306;28;20040;-86
2022/02/12 02:11:55;;;;;;;3.30;1.30;;;;;;;7.84;62.51;101565.16;4973359;28;20488;-85
2022/02/12 02:14:31;;;;;;;7.22;1.40;;;;;;;7.87;62.52;101571.13;4973572;28;20041;-85
2022/02/12 02:16:56;;;;;;;5.63;1.23;;;;;;;7.87;62.86;101568.53;4973274;28;20019;-86
2022/02/12 02:19:22;;;;;;;4.15;1.10;;;;;;;7.82;62.39;101567.88;4973041;28;20037;-85
2022/02/12 02:21:52;;;;;;;9.13;2.15;;;;;;;7.83;62.70;101559.09;4973298;28;20031;-86
2022/02/12 02:24:18;;;;;;;5.20;1.10;;;;;;;7.84;62.67;101559.94;4973121;28;20034;-86
2022/02/12 02:26:44;;;;;;;4.90;1.15;;;;;;;7.85;62.36;101559.03;4973007;28;20015;-85
2022/02/12 02:29:09;;;;;;;5.90;1.33;;;;;;;7.82;63.25;101556.53;4972845;28;20039;-85
2022/02/12 02:31:34;;;;;;;7.40;1.55;;;;;;;7.83;62.81;101542.56;4973147;28;20029;-85
2022/02/12 02:34:09;;;;;;;5.93;1.10;;;;;;;7.82;62.94;101539.09;4973032;28;20046;-85
2022/02/12 02:36:35;;;;;;;7.60;1.90;;;;;;;7.83;63.29;101532.09;4973040;28;20073;-85
2022/02/12 02:39:01;;;;;;;6.03;1.30;;;;;;;7.88;62.62;101536.25;4972704;28;20232;-85
2022/02/12 02:41:27;;;;;;;7.70;1.38;;;;;;;7.95;62.62;101542.94;4973040;28;20027;-85
2022/02/12 02:43:52;;;;;;;5.13;1.30;;;;;;;7.95;63.12;101531.63;4972755;28;20054;-86
2022/02/12 02:46:18;;;;;;;6.50;1.30;;;;;;;7.97;63.04;101521.94;4972842;28;20134;-85
2022/02/12 02:48:44;;;;;;;9.18;1.73;;;;;;;7.91;63.05;101512.59;4972984;28;20436;-85
2022/02/12 02:56:37;;;;;;;7.35;1.55;;;;;;;8.04;62.93;101509.50;4973120;28;20080;-86
2022/02/12 02:59:03;;;;;;;7.60;1.50;;;;;;;8.06;62.88;101505.06;4972360;28;20541;-85
2022/02/12 03:01:28;;;;;;;7.70;1.50;;;;;;;8.11;62.36;101495.25;4972762;28;20027;-85
2022/02/12 03:03:54;;;;;;;6.72;1.50;;;;;;;8.14;63.01;101489.91;4972929;28;20050;-85
2022/02/12 03:06:22;;;;;;;4.95;1.42;;;;;;;8.21;62.48;101485.25;4972658;28;20030;-85
2022/02/12 03:08:48;;;;;;;7.25;1.05;;;;;;;8.26;62.82;101483.31;4972629;28;20536;-86
2022/02/12 03:11:15;;;;;;;7.13;1.52;;;;;;;8.26;62.24;101484.16;4972916;28;20023;-85
2022/02/12 03:13:42;;;;;;;12.85;2.42;;;;;;;8.20;62.44;101473.97;4972395;28;20027;-85
2022/02/12 03:16:09;;;;;;;4.85;1.30;;;;;;;8.28;62.07;101465.78;4972416;28;20045;-85
2022/02/12 03:18:35;;;;;;;11.07;1.75;;;;;;;8.23;62.26;101458.13;4975451;28;20138;-85
2022/02/12 03:21:01;;;;;;;6.30;2.35;;;;;;;8.26;62.55;101452.78;4976417;28;20022;-85
2022/02/12 03:23:26;;;;;;;7.22;1.98;;;;;;;8.21;62.58;101440.78;4976365;28;20029;-85
2022/02/12 03:25:51;;;;;;;4.80;1.40;;;;;;;8.23;62.07;101452.88;4976387;28;20595;-85
2022/02/12 03:28:17;;;;;;;8.98;1.63;;;;;;;8.21;62.64;101443.41;4975945;28;20465;-86
2022/02/12 03:30:45;;;;;;;10.68;2.25;;;;;;;8.26;62.71;101441.47;4976401;28;20023;-86
2022/02/12 03:33:11;;;;;;;6.97;1.20;;;;;;;8.28;62.32;101431.78;4976129;28;20038;-85
2022/02/12 03:35:37;;;;;;;9.13;1.83;;;;;;;8.31;62.42;101431.63;4976205;28;20023;-85
2022/02/12 03:38:22;;;;;;;9.15;1.48;;;;;;;8.36;62.43;101413.16;4976208;28;20027;-86
2022/02/12 03:40:49;;;;;;;6.45;1.58;;;;;;;8.41;62.97;101411.16;4976117;28;20046;-85
2022/02/12 03:43:16;;;;;;;8.27;1.90;;;;;;;8.45;62.32;101402.28;4975815;28;20046;-86
2022/02/12 03:45:42;;;;;;;5.55;1.45;;;;;;;8.56;62.22;101396.59;4975893;28;20077;-86
2022/02/12 03:48:08;;;;;;;9.18;1.60;;;;;;;8.53;61.49;101389.72;4975852;28;20057;-86
2022/02/12 03:50:35;;;;;;;8.30;1.40;;;;;;;8.57;62.16;101375.59;4974300;28;20058;-86
2022/02/12 03:53:02;;;;;;;8.73;1.65;;;;;;;8.62;62.15;101371.00;4975812;28;20082;-85
2022/02/12 03:55:28;;;;;;;8.70;1.30;;;;;;;8.68;61.70;101362.88;4975939;28;20089;-86
2022/02/12 03:57:55;;;;;;;7.03;1.40;;;;;;;8.73;61.23;101366.16;4975692;28;20027;-86
2022/02/12 04:00:21;;;;;;;5.10;1.77;;;;;;;8.76;61.61;101372.16;4975675;28;20031;-85
2022/02/12 04:02:47;;;;;;;7.90;1.95;;;;;;;8.71;61.70;101360.13;4975927;28;20086;-85
2022/02/12 04:05:15;;;;;;;9.18;1.75;;;;;;;8.73;62.17;101357.44;4975772;28;20027;-85
2022/02/12 04:07:43;;;;;;;9.85;2.33;;;;;;;8.90;61.36;101367.97;4975222;28;20026;-86
2022/02/12 04:10:12;;;;;;;8.32;1.63;;;;;;;9.03;61.34;101359.59;4973215;28;20018;-86
2022/02/12 04:12:37;;;;;;;11.02;1.73;;;;;;;8.99;61.53;101356.25;4974435;28;20069;-85
2022/02/12 04:15:03;;;;;;;13.93;2.03;;;;;;;8.97;61.41;101350.22;4975384;28;20058;-86
2022/02/12 04:17:34;;;;;;;8.57;1.67;;;;;;;9.10;61.07;101345.25;4975352;28;20042;-86
2022/02/12 04:20:02;;;;;;;6.97;1.65;;;;;;;9.15;60.99;101351.16;4975314;28;20034;-86
2022/02/12 04:22:29;;;;;;;8.57;1.77;;;;;;;9.19;61.05;101349.25;4975409;28;20034;-85
2022/02/12 04:24:54;;;;;;;8.23;1.70;;;;;;;9.04;61.00;101348.16;4973986;28;20113;-86
2022/02/12 04:27:19;;;;;;;7.43;1.60;;;;;;;9.09;61.19;101341.78;4974887;28;20165;-85
2022/02/12 04:29:45;;;;;;;21.67;2.30;;;;;;;9.13;60.72;101340.72;4972602;28;20058;-85
2022/02/12 04:32:10;;;;;;;5.47;1.67;;;;;;;9.31;61.02;101340.78;4975168;28;20385;-86
2022/02/12 04:34:35;;;;;;;6.95;2.28;;;;;;;9.25;60.74;101341.91;4975168;28;20492;-85
2022/02/12 04:37:01;;;;;;;5.40;1.50;;;;;;;9.49;59.58;101341.66;4975139;28;20042;-85
2022/02/12 04:39:26;;;;;;;10.73;1.77;;;;;;;9.25;60.46;101334.06;4974820;28;20035;-86
2022/02/12 04:41:52;;;;;;;7.32;1.48;;;;;;;9.40;59.89;101332.50;4974815;28;20034;-86
2022/02/12 04:44:17;;;;;;;7.50;1.40;;;;;;;9.26;60.30;101322.66;4974958;28;20027;-85
2022/02/12 04:46:42;;;;;;;11.15;2.15;;;;;;;9.45;59.64;101319.16;4974881;28;20023;-85
2022/02/12 04:49:08;;;;;;;9.25;1.48;;;;;;;9.47;60.10;101326.00;4974871;28;20045;-86
2022/02/12 04:51:33;;;;;;;12.02;1.65;;;;;;;9.59;59.52;101328.97;4974879;28;20026;-86
2022/02/12 04:53:59;;;;;;;12.65;1.80;;;;;;;9.59;59.66;101319.31;4974677;28;20069;-85
2022/02/12 04:56:25;;;;;;;7.70;1.50;;;;;;;9.60;59.01;101315.78;4974372;28;20118;-85
2022/02/12 04:58:51;;;;;;;8.20;1.92;;;;;;;9.36;59.65;101309.09;4973123;28;20105;-86
2022/02/12 05:01:20;;;;;;;12.00;1.60;;;;;;;9.22;60.25;101322.88;4974615;28;20536;-85
2022/02/12 05:03:53;;;;;;;14.38;2.63;;;;;;;9.32;59.57;101322.38;4974518;28;20041;-85
2022/02/12 05:06:19;;;;;;;10.77;1.65;;;;;;;9.29;60.11;101317.25;4974736;28;20094;-86
2022/02/12 05:08:46;;;;;;;16.30;2.17;;;;;;;9.31;59.76;101314.59;4974442;28;20038;-86
2022/02/12 05:11:12;;;;;;;12.48;2.00;;;;;;;9.21;60.41;101311.56;4974160;28;20488;-85
2022/02/12 05:13:38;;;;;;;6.32;1.70;;;;;;;9.40;59.23;101314.16;4974621;28;20027;-85
2022/02/12 05:16:04;;;;;;;12.45;2.00;;;;;;;9.29;59.56;101313.81;4974410;28;20504;-85
2022/02/12 05:18:30;;;;;;;6.55;1.60;;;;;;;9.37;59.41;101311.66;4974192;28;20548;-86
2022/02/12 05:20:56;;;;;;;7.35;1.35;;;;;;;9.45;59.23;101308.66;4974362;28;20110;-86
2022/02/12 05:23:22;;;;;;;10.32;1.50;;;;;;;9.33;58.61;101310.94;4974205;28;20101;-85
2022/02/12 05:25:47;;;;;;;7.75;2.20;;;;;;;9.42;59.00;101304.44;4974152;28;20062;-85
2022/02/12 05:28:13;;;;;;;6.75;1.77;;;;;;;9.48;58.63;101316.41;4973746;28;20104;-85
2022/02/12 05:30:40;;;;;;;9.65;1.58;;;;;;;9.42;58.65;101306.19;4973720;28;20062;-85
2022/02/12 05:33:09;;;;;;;5.72;1.42;;;;;;;9.43;58.34;101300.88;4973856;28;20568;-85
2022/02/12 05:35:35;;;;;;;8.02;1.80;;;;;;;9.58;58.47;101298.41;4973910;28;20038;-85
2022/02/12 05:38:00;;;;;;;9.52;2.13;;;;;;;9.45;58.18;101304.25;4973920;28;20433;-85
2022/02/12 05:40:26;;;;;;;9.57;1.70;;;;;;;9.47;58.15;101305.03;4972763;28;20037;-85
2022/02/12 05:42:51;;;;;;;11.80;2.53;;;;;;;9.45;57.89;101293.78;4973471;28;20393;-85
2022/02/12 05:45:17;;;;;;;6.97;2.03;;;;;;;9.32;58.44;101306.66;4973815;28;20046;-85
2022/02/12 05:47:43;;;;;;;7.93;1.70;;;;;;;9.36;58.57;101299.50;4973438;28;20105;-85
2022/02/12 05:50:09;;;;;;;9.75;1.70;;;;;;;9.35;58.74;101289.91;4973538;28;20074;-85
2022/02/12 05:52:36;;;;;;;12.73;1.92;;;;;;;9.41;58.38;101284.38;4973788;28;20424;-85
2022/02/12 05:55:02;;;;;;;8.80;2.65;;;;;;;9.47;58.28;101278.81;4973303;28;20037;-85
2022/02/12 05:57:27;;;;;;;7.50;1.77;;;;;;;9.63;57.56;101271.03;4973699;28;20027;-85
2022/02/12 05:59:52;;;;;;;13.65;2.30;;;;;;;9.51;58.07;101262.00;4973440;28;20480;-85
2022/02/12 06:02:18;;;;;;;11.52;2.20;;;;;;;9.44;57.86;101258.03;4973455;28;20033;-85
2022/02/12 06:04:43;;;;;;;13.15;2.40;;;;;;;9.49;58.23;101253.38;4973543;28;20552;-85
2022/02/12 06:07:10;;;;;;;12.23;2.38;;;;;;;9.57;58.08;101250.38;4973426;28;20082;-85
2022/02/12 06:09:35;;;;;;;6.97;1.95;;;;;;;9.51;57.83;101238.41;4973294;28;20428;-84
2022/02/12 06:12:01;;;;;;;6.43;1.55;;;;;;;9.56;58.12;101245.19;4973443;28;20030;-85
2022/02/12 06:14:26;;;;;;;7.45;2.22;;;;;;;9.56;58.05;101237.34;4973466;28;20388;-85
2022/02/12 06:16:56;;;;;;;8.40;2.10;;;;;;;9.59;58.16;101237.19;4973513;28;20035;-85
2022/02/12 06:19:21;;;;;;;4.32;1.70;;;;;;;9.75;57.52;101227.63;4973311;28;20512;-85
2022/02/12 06:21:47;;;;;;;10.98;2.20;;;;;;;9.47;57.86;101229.00;4973126;28;20107;-85
2022/02/12 06:24:13;;;;;;;14.25;2.63;;;;;;;9.48;58.25;101222.88;4973610;28;20364;-85
2022/02/12 06:26:43;;;;;;;13.02;2.22;;;;;;;9.65;57.36;101214.13;4971575;28;20375;-85
2022/02/12 06:29:09;;;;;;;9.10;2.70;;;;;;;9.59;57.83;101217.06;4973059;28;20026;-85
2022/02/12 06:31:35;;;;;;;6.38;1.98;;;;;;;9.60;57.83;101223.19;4972937;28;20027;-86
2022/02/12 06:34:00;;;;;;;9.40;2.47;;;;;;;9.49;57.87;101216.69;4973165;28;20109;-86
2022/02/12 06:36:26;;;;;;;17.33;2.60;;;;;;;9.36;58.43;101210.38;4973185;28;20381;-85
2022/02/12 06:38:51;;;;;;;16.70;3.13;;;;;;;9.36;58.17;101210.38;4973001;28;20042;-86
2022/02/12 06:41:16;;;;;;;11.63;2.85;;;;;;;9.29;58.45;101209.81;4972546;28;20023;-85
2022/02/12 06:43:42;;;;;;;26.65;6.38;;;;;;;9.36;58.48;101207.75;4970472;28;20037;-85
2022/02/12 06:46:07;;;;;;;8.85;2.90;;;;;;;9.36;58.65;101205.13;4972946;28;20038;-85
2022/02/12 06:48:33;;;;;;;15.18;2.95;;;;;;;9.21;58.75;101200.66;4965283;28;20122;-85
2022/02/12 06:50:58;;;;;;;13.27;2.53;;;;;;;9.57;57.90;101202.34;4962138;28;20068;-85
2022/02/12 06:53:24;;;;;;;8.05;2.47;;;;;;;9.46;58.13;101203.75;4967827;28;20081;-85
2022/02/12 06:55:50;;;;;;;11.18;2.72;;;;;;;9.51;57.73;101214.81;4962610;28;20034;-85
2022/02/12 06:58:15;;;;;;;5.72;2.35;;;;;;;9.59;57.25;101206.56;4957416;28;20393;-85
2022/02/12 07:00:40;;;;;;;9.25;2.72;;;;;;;9.75;57.00;101204.00;4957498;28;20031;-85
2022/02/12 07:03:06;;;;;;;14.73;2.33;;;;;;;9.66;57.04;101202.72;4957437;28;20027;-84
2022/02/12 07:05:31;;;;;;;14.98;2.50;;;;;;;9.67;57.22;101193.06;4960093;28;20050;-85
2022/02/12 07:07:57;;;;;;;12.95;2.60;;;;;;;9.61;57.49;101193.41;4971509;28;20027;-84
2022/02/12 07:10:22;;;;;;;7.82;2.65;;;;;;;9.66;56.88;101194.84;4969069;28;20085;-85
2022/02/12 07:12:48;;;;;;;14.60;2.58;;;;;;;9.67;56.92;101193.06;4967419;28;20030;-85
2022/02/12 07:15:14;;;;;;;8.18;2.25;;;;;;;9.72;57.09;101185.84;4965763;28;20027;-84
2022/02/12 07:17:39;;;;;;;7.85;2.22;;;;;;;9.72;56.47;101178.81;4967220;28;20034;-85
2022/02/12 07:20:07;;;;;;;7.93;2.45;;;;;;;9.69;56.37;101176.31;4959420;28;20038;-85
2022/02/12 07:22:32;;;;;;;8.43;2.50;;;;;;;9.72;56.86;101177.97;4964122;28;20037;-85
2022/02/12 07:24:58;;;;;;;6.80;2.47;;;;;;;9.85;56.05;101186.03;4961189;28;20035;-86
2022/02/12 07:27:23;;;;;;;6.50;1.80;;;;;;;9.83;56.53;101180.00;4963964;28;20065;-85
2022/02/12 07:29:48;;;;;;;9.98;2.67;;;;;;;9.82;55.83;101176.56;4970676;28;20049;-85
2022/02/12 07:32:14;;;;;;;13.90;3.83;;;;;;;9.89;55.87;101172.69;4968118;28;20089;-86
2022/02/12 07:34:39;;;;;;;6.43;2.17;;;;;;;9.89;55.75;101177.94;4975961;28;20370;-86
2022/02/12 07:37:04;;;;;;;7.72;1.75;;;;;;;9.90;55.88;101168.28;4975747;28;20034;-86
2022/02/12 07:39:30;;;;;;;12.13;2.58;;;;;;;9.70;56.35;101170.16;4975305;28;20454;-85
2022/02/12 07:41:55;;;;;;;12.68;3.05;;;;;;;9.87;55.89;101174.53;4974344;28;20034;-85
2022/02/12 07:44:21;;;;;;;9.75;2.30;;;;;;;9.76;55.88;101183.91;4962958;28;20062;-86
2022/02/12 07:46:47;;;;;;;7.13;1.95;;;;;;;9.70;55.57;101179.81;4963860;28;20058;-86
2022/02/12 07:49:12;;;;;;;9.88;1.98;;;;;;;9.60;56.23;101175.97;4963879;28;20027;-85
2022/02/12 07:51:38;;;;;;;9.35;2.20;;;;;;;9.81;55.73;101181.88;4961662;28;20106;-86
2022/02/12 07:54:04;;;;;;;8.85;2.10;;;;;;;9.76;55.90;101176.03;4965892;28;20031;-86
2022/02/12 07:56:30;;;;;;;8.60;1.88;;;;;;;9.82;55.69;101176.56;4970105;28;20080;-85
2022/02/12 07:58:55;;;;;;;8.23;2.35;;;;;;;9.42;56.48;101173.38;4978625;28;20038;-86
2022/02/12 08:01:21;;;;;;;8.98;2.00;;;;;;;9.62;56.34;101163.63;4969795;28;20023;-85
2022/02/12 08:03:46;;;;;;;17.40;3.58;;;;;;;9.40;56.44;101174.34;4960076;28;20401;-86
2022/02/12 08:08:55;;;;;;;8.25;1.70;;;;;;;9.60;56.30;101161.09;4974607;28;20038;-86
2022/02/12 08:11:25;;;;;;;11.73;1.67;;;;;;;9.59;56.67;101169.03;4974538;28;20030;-86
2022/02/12 08:13:51;;;;;;;6.95;1.60;;;;;;;9.53;56.55;101160.53;4961248;28;20569;-86
2022/02/12 08:16:18;;;;;;;13.50;3.85;;;;;;;9.72;55.96;101164.84;4969584;28;20122;-86
2022/02/12 08:18:43;;;;;;;5.75;1.92;;;;;;;9.66;56.10;101163.38;4957706;28;20027;-85
2022/02/12 08:21:09;;;;;;;10.05;2.20;;;;;;;9.66;56.30;101159.94;4969731;28;20026;-85
2022/02/12 08:23:34;;;;;;;6.90;2.05;;;;;;;9.81;55.66;101153.84;4972884;28;20501;-86
2022/02/12 08:26:00;;;;;;;8.15;1.67;;;;;;;9.84;55.72;101158.13;4973562;28;20453;-86
2022/02/12 08:28:25;;;;;;;9.50;2.67;;;;;;;9.60;56.49;101155.00;4973856;28;20035;-85
2022/02/12 08:30:51;;;;;;;19.30;5.03;;;;;;;9.77;56.33;101165.44;4969682;28;20401;-86
2022/02/12 08:33:16;;;;;;;7.25;2.28;;;;;;;9.79;55.45;101145.22;4971699;28;20393;-87
2022/02/12 08:35:41;;;;;;;9.18;2.90;;;;;;;9.68;56.39;101151.03;4972033;28;20470;-87
2022/02/12 08:38:07;;;;;;;6.55;1.88;;;;;;;9.56;56.61;101146.44;4965391;28;20118;-87
2022/02/12 08:40:32;;;;;;;9.40;2.28;;;;;;;9.73;56.48;101151.66;4954899;28;20034;-87
2022/02/12 08:42:58;;;;;;;9.13;2.45;;;;;;;9.72;56.54;101149.13;4959990;28;20039;-87
2022/02/12 08:45:24;;;;;;;9.55;2.05;;;;;;;9.45;56.62;101146.16;4955556;28;20023;-87
2022/02/12 08:47:50;;;;;;;9.07;1.67;;;;;;;9.60;56.60;101141.91;4955309;28;20031;-86
2022/02/12 08:50:16;;;;;;;17.00;2.38;;;;;;;9.68;55.99;101143.19;4957575;28;20062;-86
2022/02/12 08:52:44;;;;;;;9.75;2.25;;;;;;;9.65;56.19;101142.50;4973962;28;20038;-87
2022/02/12 08:55:10;;;;;;;12.25;2.45;;;;;;;9.70;56.35;101136.06;4974421;28;20029;-87
2022/02/12 08:57:36;;;;;;;7.57;2.60;;;;;;;9.84;55.82;101137.13;4973912;28;20019;-87
2022/02/12 09:00:09;;;;;;;9.20;2.30;;;;;;;9.84;55.69;101127.47;4973087;28;20034;-88
2022/02/12 09:02:35;;;;;;;12.95;2.42;;;;;;;9.81;56.26;101122.38;4969591;28;20033;-89
2022/02/12 09:05:01;;;;;;;11.05;2.65;;;;;;;9.85;56.32;101123.06;4961116;28;20452;-88
2022/02/12 09:07:27;;;;;;;13.40;2.80;;;;;;;10.01;55.79;101123.09;4973155;28;20030;-87
2022/02/12 09:09:54;;;;;;;10.70;2.13;;;;;;;9.97;56.55;101129.44;4973874;28;20045;-89
2022/02/12 09:12:19;;;;;;;14.30;2.45;;;;;;;10.00;56.25;101131.91;4973022;28;20034;-88
2022/02/12 09:14:45;;;;;;;16.52;2.92;;;;;;;10.00;56.31;101131.91;4955821;28;20551;-88
2022/02/12 09:17:11;;;;;;;11.65;3.25;;;;;;;9.98;56.67;101121.50;4966959;28;20035;-88
2022/02/12 09:19:37;;;;;;;14.20;2.63;;;;;;;10.09;56.03;101118.28;4954776;28;20035;-88
2022/02/12 09:22:03;;;;;;;15.73;2.30;;;;;;;10.31;55.90;101118.84;4965282;28;20556;-88
2022/02/12 09:24:28;;;;;;;15.77;2.53;;;;;;;10.18;55.82;101114.31;4969932;28;20215;-88
2022/02/12 09:26:54;;;;;;;11.40;2.13;;;;;;;10.35;55.89;101105.53;4962035;28;20082;-88
2022/02/12 09:29:19;;;;;;;12.63;3.03;;;;;;;10.49;55.72;101101.22;4973952;28;20034;-87
2022/02/12 09:31:45;;;;;;;6.70;2.10;;;;;;;10.35;55.49;101093.25;4973831;28;20085;-88
2022/02/12 09:34:10;;;;;;;10.20;3.25;;;;;;;10.48;55.36;101094.25;4973948;28;20107;-88
2022/02/12 09:36:40;;;;;;;9.48;2.47;;;;;;;10.55;55.16;101094.75;4973897;28;20031;-86
2022/02/12 09:39:05;;;;;;;12.52;2.63;;;;;;;10.31;55.49;101095.22;4973812;28;20497;-86
2022/02/12 09:41:30;;;;;;;7.93;2.45;;;;;;;10.63;55.10;101089.91;4972551;28;20027;-88
2022/02/12 09:43:56;;;;;;;6.60;2.05;;;;;;;10.83;54.28;101090.56;4973172;28;20038;-87
2022/02/12 09:46:28;;;;;;;8.95;1.95;;;;;;;10.76;54.55;101089.19;4973633;28;20480;-87
2022/02/12 09:48:54;;;;;;;11.00;2.10;;;;;;;10.52;55.04;101081.78;4973598;28;20038;-86
2022/02/12 09:51:23;;;;;;;9.98;2.60;;;;;;;10.52;55.33;101081.78;4973521;28;20027;-88
2022/02/12 09:53:48;;;;;;;13.75;2.53;;;;;;;10.13;55.87;101075.22;4972424;28;20101;-88
2022/02/12 09:56:14;;;;;;;13.70;2.75;;;;;;;10.57;55.10;101082.41;4973245;28;20086;-88
2022/02/12 09:58:39;;;;;;;10.43;2.22;;;;;;;10.77;54.55;101065.47;4972997;28;20476;-88
2022/02/12 10:01:07;;;;;;;10.23;2.05;;;;;;;11.11;53.84;101077.47;4973742;28;20106;-88
2022/02/12 10:03:33;;;;;;;13.13;3.33;;;;;;;11.01;54.41;101068.44;4973548;28;20026;-88
2022/02/12 10:05:59;;;;;;;8.13;1.77;;;;;;;11.55;53.40;101069.63;4973458;28;20027;-89
2022/02/12 10:08:25;;;;;;;13.02;1.88;;;;;;;11.50;53.19;101070.75;4973576;28;20023;-89
2022/02/12 10:10:52;;;;;;;9.63;2.10;;;;;;;11.57;53.40;101065.09;4973473;28;20057;-89
2022/02/12 10:13:21;;;;;;;15.40;1.92;;;;;;;11.63;53.17;101070.00;4973063;28;20030;-88
2022/02/12 10:15:50;;;;;;;10.40;1.85;;;;;;;11.59;53.01;101063.22;4973546;28;20031;-85
2022/02/12 10:18:18;;;;;;;11.35;2.35;;;;;;;11.10;53.97;101057.41;4973490;28;20027;-87
2022/02/12 10:20:44;;;;;;;12.55;2.30;;;;;;;11.44;53.77;101060.59;4973135;28;20037;-88
2022/02/12 10:23:12;;;;;;;12.68;2.80;;;;;;;11.78;53.20;101058.53;4973207;28;20027;-88
2022/02/12 10:26:02;;;;;;;8.13;2.00;;;;;;;11.88;52.26;101033.31;4973260;28;20027;-88
2022/02/12 10:28:29;;;;;;;10.25;2.00;;;;;;;11.62;53.00;101047.28;4969554;28;20098;-88
2022/02/12 10:30:56;;;;;;;8.52;2.30;;;;;;;11.47;52.99;101034.13;4973054;28;20030;-88
2022/02/12 10:33:26;;;;;;;11.32;2.22;;;;;;;10.90;54.37;101032.31;4967393;28;20086;-88
2022/02/12 10:35:55;;;;;;;15.57;2.45;;;;;;;11.29;53.87;101020.34;4960742;28;20720;-89
2022/02/12 10:38:23;;;;;;;10.70;2.47;;;;;;;11.26;53.51;101023.16;4970306;28;20077;-88
2022/02/12 10:41:08;;;;;;;16.88;2.70;;;;;;;11.50;53.52;101012.91;4972559;28;20061;-89
2022/02/12 10:43:34;;;;;;;12.30;2.25;;;;;;;10.91;54.05;101023.47;4971968;28;20105;-88
2022/02/12 10:46:01;;;;;;;15.55;3.05;;;;;;;11.00;54.52;101019.47;4961541;28;20042;-88
2022/02/12 10:48:26;;;;;;;10.93;2.58;;;;;;;11.08;54.32;101016.38;4961066;28;20035;-88
2022/02/12 10:50:59;;;;;;;13.70;3.03;;;;;;;11.14;53.97;100999.38;4965030;28;20049;-88
2022/02/12 10:53:25;;;;;;;16.50;2.95;;;;;;;10.98;54.56;101004.72;4963936;28;20451;-89
2022/02/12 10:56:01;;;;;;;13.55;2.78;;;;;;;11.62;53.20;101008.66;4966264;28;20031;-88
2022/02/12 10:58:26;;;;;;;11.13;2.50;;;;;;;11.70;53.05;101002.91;4960894;28;20027;-88
2022/02/12 11:00:52;;;;;;;7.47;2.53;;;;;;;11.75;53.12;101006.09;4969954;28;20034;-88
2022/02/12 11:03:20;;;;;;;13.40;2.45;;;;;;;11.59;53.53;100995.72;4971633;28;20029;-96
2022/02/12 11:05:51;;;;;;;9.38;2.80;;;;;;;11.59;53.53;100986.94;4968984;28;20030;-88
2022/02/12 11:08:20;;;;;;;18.08;2.20;;;;;;;11.87;52.68;100986.91;4969622;28;20027;-87
2022/02/12 11:10:45;;;;;;;14.25;2.50;;;;;;;12.04;52.34;100985.00;4969299;28;20205;-87
2022/02/12 11:13:12;;;;;;;16.92;3.25;;;;;;;12.07;52.31;100971.66;4969719;28;20536;-88
2022/02/12 11:15:37;;;;;;;17.50;3.22;;;;;;;12.09;52.05;100975.03;4970386;28;20026;-88
2022/02/12 11:18:14;;;;;;;12.45;3.30;;;;;;;11.79;52.73;100970.78;4967608;28;20027;-87
2022/02/12 11:20:42;;;;;;;16.70;3.55;;;;;;;11.73;52.73;100970.28;4970000;28;20042;-87
2022/02/12 11:23:27;;;;;;;11.02;2.65;;;;;;;11.33;53.27;100955.25;4965818;28;20034;-88
2022/02/12 11:25:54;;;;;;;10.63;2.42;;;;;;;11.97;52.40;100942.44;4967286;28;20118;-93
2022/02/12 11:28:27;;;;;;;14.18;3.00;;;;;;;12.04;52.44;100945.50;4968038;28;20027;-87
2022/02/12 11:31:27;;;;;;;17.85;2.75;;;;;;;12.17;52.19;100943.78;4971597;28;20214;-88
2022/02/12 11:34:01;;;;;;;9.82;2.97;;;;;;;12.00;52.22;100929.06;4969608;28;20062;-92